Time;durP1;ratioP1;P1;durP2;ratioP2;P2;SDS_P1;SDS_P2;PMS_P1;PMS_P2;Temp;Humidity;BMP_temperature;BMP_pressure;BME280_temperature;BME280_humidity;BME280_pressure;Samples;Min_cycle;Max_cycle;Signal;HPM_P1;HPM_P2
2021/03/02 00:02:16;;;;;;;17.95;11.90;;;;;;;-0.25;100.00;102310.84;1840561;77;21260;-87
2021/03/02 00:04:46;;;;;;;16.10;11.25;;;;;;;-0.27;100.00;102304.45;1840492;77;21153;-87
2021/03/02 00:07:15;;;;;;;14.70;11.05;;;;;;;-0.28;100.00;102310.42;1840499;77;21446;-87
2021/03/02 00:09:45;;;;;;;15.72;11.20;;;;;;;-0.29;100.00;102298.92;1840420;77;21157;-87
2021/03/02 00:12:19;;;;;;;15.83;10.78;;;;;;;-0.32;100.00;102304.46;1835257;77;21070;-87
2021/03/02 00:14:47;;;;;;;14.85;10.13;;;;;;;-0.33;100.00;102306.59;1840495;77;21109;-87
2021/03/02 00:17:36;;;;;;;14.75;9.85;;;;;;;-0.34;100.00;102305.33;1840447;77;21591;-87
2021/03/02 00:20:10;;;;;;;14.53;9.78;;;;;;;-0.35;100.00;102301.06;1840550;77;21987;-87
2021/03/02 00:22:56;;;;;;;13.38;9.30;;;;;;;-0.39;100.00;102299.34;1840566;77;21146;-87
2021/03/02 00:25:36;;;;;;;15.08;10.13;;;;;;;-0.41;100.00;102296.80;1836732;77;21169;-87
2021/03/02 00:28:08;;;;;;;14.78;9.38;;;;;;;-0.42;100.00;102298.09;1840732;77;21185;-87
2021/03/02 00:30:39;;;;;;;14.15;9.93;;;;;;;-0.48;100.00;102294.67;1834567;77;21215;-87
2021/03/02 00:33:09;;;;;;;11.90;8.05;;;;;;;-0.51;100.00;102287.42;1807644;78;24600;-87
2021/03/02 00:35:38;;;;;;;18.97;13.33;;;;;;;-0.53;100.00;102286.60;1836621;77;21196;-87
2021/03/02 00:38:06;;;;;;;20.60;14.28;;;;;;;-0.55;100.00;102284.02;1839851;77;21129;-86
2021/03/02 00:40:34;;;;;;;17.20;11.97;;;;;;;-0.56;100.00;102287.87;1839825;78;21133;-86
2021/03/02 00:43:02;;;;;;;16.57;11.38;;;;;;;-0.57;100.00;102282.33;1839892;77;21113;-86
2021/03/02 00:45:30;;;;;;;17.98;12.73;;;;;;;-0.57;100.00;102281.92;1839739;77;22034;-86
2021/03/02 00:47:59;;;;;;;14.30;10.50;;;;;;;-0.58;100.00;102278.06;1839838;77;21212;-86
2021/03/02 00:50:29;;;;;;;17.65;12.25;;;;;;;-0.58;100.00;102272.95;1839804;77;21110;-86
2021/03/02 00:52:57;;;;;;;25.35;18.12;;;;;;;-0.58;100.00;102263.98;1839770;77;21122;-87
2021/03/02 00:55:25;;;;;;;28.30;22.13;;;;;;;-0.58;100.00;102258.45;1839762;77;21541;-86
2021/03/02 00:57:55;;;;;;;31.25;22.48;;;;;;;-0.60;100.00;102259.32;1839930;78;21284;-86
2021/03/02 01:00:25;;;;;;;31.95;23.75;;;;;;;-0.66;100.00;102257.18;1834425;77;21380;-86
2021/03/02 01:02:54;;;;;;;31.12;22.80;;;;;;;-0.70;100.00;102261.02;1839772;77;21197;-86
2021/03/02 01:05:23;;;;;;;29.95;21.97;;;;;;;-0.75;100.00;102253.35;1839834;77;21148;-86
2021/03/02 01:07:52;;;;;;;33.33;24.00;;;;;;;-0.77;100.00;102260.20;1839696;77;21110;-86
2021/03/02 01:10:23;;;;;;;33.18;24.20;;;;;;;-0.82;100.00;102251.66;1834452;77;21586;-86
2021/03/02 01:12:57;;;;;;;32.23;23.87;;;;;;;-0.85;100.00;102255.08;1784512;79;21127;-86
2021/03/02 01:15:27;;;;;;;35.85;26.02;;;;;;;-0.88;100.00;102247.40;1784053;79;21188;-86
2021/03/02 01:17:55;;;;;;;39.95;28.35;;;;;;;-0.89;100.00;102242.30;1784115;79;21161;-86
2021/03/02 01:20:24;;;;;;;34.65;25.95;;;;;;;-0.93;100.00;102246.56;1793456;77;21152;-86
2021/03/02 01:22:51;;;;;;;36.23;25.72;;;;;;;-0.94;100.00;102244.02;1825563;78;21579;-86
2021/03/02 01:25:21;;;;;;;41.00;30.80;;;;;;;-0.95;100.00;102240.59;1826641;77;21231;-86
2021/03/02 01:27:49;;;;;;;40.38;29.77;;;;;;;-0.96;100.00;102243.99;1826908;78;21072;-86
2021/03/02 01:30:20;;;;;;;39.45;28.17;;;;;;;-0.99;100.00;102238.45;1826728;78;21075;-86
2021/03/02 01:32:48;;;;;;;;;;;;;;;-1.01;100.00;102232.52;1829364;78;21151;-86
2021/03/02 01:35:17;;;;;;;36.03;25.25;;;;;;;-1.02;100.00;102240.17;1826607;77;21336;-85
2021/03/02 01:37:45;;;;;;;33.15;25.17;;;;;;;-1.04;100.00;102235.50;1826676;77;21148;-86
2021/03/02 01:40:16;;;;;;;42.10;30.20;;;;;;;-1.06;100.00;102232.09;1826908;78;21033;-86
2021/03/02 01:42:44;;;;;;;;;;;;;;;-1.07;100.00;102232.94;1829376;77;21143;-85
2021/03/02 01:45:17;;;;;;;37.70;26.87;;;;;;;-1.07;100.00;102241.45;1826921;77;20225;-85
2021/03/02 01:47:49;;;;;;;37.20;27.10;;;;;;;-1.08;100.00;102234.63;1826738;78;22288;-86
2021/03/02 01:50:20;;;;;;;34.92;25.55;;;;;;;-1.11;100.00;102218.87;1826607;78;21123;-86
2021/03/02 01:52:50;;;;;;;32.80;24.15;;;;;;;-1.13;100.00;102213.33;1826675;78;21161;-86
2021/03/02 01:55:19;;;;;;;34.27;24.77;;;;;;;-1.14;100.00;102216.33;1826794;78;21607;-85
2021/03/02 01:57:47;;;;;;;36.73;24.90;;;;;;;-1.16;100.00;102214.63;1826558;78;21083;-85
2021/03/02 02:00:32;;;;;;;33.10;22.95;;;;;;;-1.18;100.00;102213.77;1826829;78;22347;-85
2021/03/02 02:03:14;;;;;;;30.55;21.17;;;;;;;-1.24;100.00;102212.50;1826682;78;21179;-85
2021/03/02 02:05:56;;;;;;;28.85;21.60;;;;;;;-1.28;100.00;102213.77;1826084;78;21127;-85
2021/03/02 02:08:29;;;;;;;31.60;21.33;;;;;;;-1.32;100.00;102207.38;1804453;77;21127;-85
2021/03/02 02:11:02;;;;;;;29.60;22.17;;;;;;;-1.39;100.00;102199.28;1820875;77;21534;-85
2021/03/02 02:13:37;;;;;;;31.77;22.10;;;;;;;-1.43;100.00;102197.16;1824515;77;21575;-85
2021/03/02 02:16:09;;;;;;;30.15;20.40;;;;;;;-1.46;100.00;102198.02;1824476;78;21167;-85
2021/03/02 02:18:40;;;;;;;27.98;19.80;;;;;;;-1.48;100.00;102197.56;1821253;78;21100;-85
2021/03/02 02:21:29;;;;;;;29.25;20.02;;;;;;;-1.50;100.00;102186.51;1826625;77;21227;-85
2021/03/02 02:24:20;;;;;;;27.10;19.62;;;;;;;-1.55;100.00;102194.17;1820884;78;21175;-85
2021/03/02 02:27:00;;;;;;;28.27;20.15;;;;;;;-1.56;100.00;102192.90;1888776;76;22684;-85
2021/03/02 02:29:35;;;;;;;25.10;17.57;;;;;;;-1.64;100.00;102198.83;1859776;77;21171;-85
2021/03/02 02:32:06;;;;;;;24.25;17.20;;;;;;;-1.68;100.00;102193.73;1859731;77;21349;-85
2021/03/02 02:34:37;;;;;;;27.25;17.07;;;;;;;-1.74;100.00;102194.58;1859570;77;21172;-85
2021/03/02 02:37:07;;;;;;;21.07;16.10;;;;;;;-1.78;100.00;102197.95;1859702;77;20990;-86
2021/03/02 02:39:38;;;;;;;21.55;14.85;;;;;;;-1.82;100.00;102197.10;1859720;77;21631;-85
2021/03/02 02:42:07;;;;;;;22.80;16.17;;;;;;;-1.86;100.00;102196.68;1859779;77;21052;-86
2021/03/02 02:44:37;;;;;;;20.75;15.45;;;;;;;-1.89;100.00;102190.28;1859593;77;21361;-85
2021/03/02 02:47:05;;;;;;;20.50;14.55;;;;;;;-1.93;100.00;102184.75;1853022;77;21116;-85
2021/03/02 02:49:35;;;;;;;20.65;14.40;;;;;;;-1.94;100.00;102186.44;1859595;77;21251;-85
2021/03/02 02:52:04;;;;;;;21.05;15.30;;;;;;;-1.94;100.00;102183.88;1859438;77;21105;-85
2021/03/02 02:54:32;;;;;;;23.73;17.17;;;;;;;-1.97;100.00;102177.52;1859759;77;21168;-85
2021/03/02 02:57:00;;;;;;;26.17;18.27;;;;;;;-1.97;100.00;102177.92;1859705;77;21354;-85
2021/03/02 02:59:35;;;;;;;27.60;19.07;;;;;;;-1.98;100.00;102179.63;1859676;77;21116;-85
2021/03/02 03:02:09;;;;;;;23.92;16.82;;;;;;;-1.98;100.00;102172.37;1856125;77;21058;-84
2021/03/02 03:05:02;;;;;;;25.20;17.60;;;;;;;-1.96;100.00;102168.97;1856162;77;21143;-84
2021/03/02 03:07:36;;;;;;;22.00;16.25;;;;;;;-1.96;100.00;102163.87;1858976;77;21163;-85
2021/03/02 03:10:08;;;;;;;22.77;15.60;;;;;;;-1.97;100.00;102166.02;1831089;77;21585;-85
2021/03/02 03:12:43;;;;;;;24.63;17.42;;;;;;;-1.95;100.00;102167.30;1820706;78;21069;-85
2021/03/02 03:15:15;;;;;;;29.98;19.45;;;;;;;-1.96;100.00;102166.86;1794419;78;21160;-86
2021/03/02 03:17:50;;;;;;;21.82;16.55;;;;;;;-1.96;100.00;102166.86;1836789;77;21227;-85
2021/03/02 03:20:20;;;;;;;28.50;19.15;;;;;;;-1.97;100.00;102169.85;1825679;78;21638;-86
2021/03/02 03:22:49;;;;;;;23.32;16.37;;;;;;;-1.99;100.00;102166.44;1832046;77;21255;-86
2021/03/02 03:25:18;;;;;;;24.02;19.05;;;;;;;-1.98;100.00;102173.66;1849211;76;21144;-85
2021/03/02 03:27:56;;;;;;;29.42;21.65;;;;;;;-1.98;100.00;102169.42;1826903;77;21164;-86
2021/03/02 03:30:26;;;;;;;30.75;20.80;;;;;;;-1.99;100.00;102170.27;1820076;78;21088;-85
2021/03/02 03:33:00;;;;;;;28.32;20.25;;;;;;;-2.01;100.00;102169.40;1828106;77;21484;-86
2021/03/02 03:35:29;;;;;;;27.80;20.30;;;;;;;-2.02;100.00;102171.52;1859777;77;21293;-86
2021/03/02 03:37:57;;;;;;;29.27;22.32;;;;;;;-2.04;100.00;102171.94;1843301;77;21175;-86
2021/03/02 03:40:25;;;;;;;42.33;29.98;;;;;;;-2.04;100.00;102171.09;1825385;78;21117;-86
2021/03/02 03:42:52;;;;;;;47.83;34.88;;;;;;;-2.06;100.00;102174.49;1825280;78;21108;-86
2021/03/02 03:45:21;;;;;;;44.10;30.75;;;;;;;-2.06;100.00;102166.00;1825356;78;21548;-86
2021/03/02 03:47:48;;;;;;;45.30;32.55;;;;;;;-2.04;100.00;102172.37;1825388;78;21281;-84
2021/03/02 03:50:17;;;;;;;49.65;35.60;;;;;;;-2.05;100.00;102171.53;1850024;77;21087;-84
2021/03/02 03:52:50;;;;;;;43.25;30.65;;;;;;;-2.06;100.00;102170.66;1859062;77;21165;-84
2021/03/02 03:55:22;;;;;;;44.67;32.05;;;;;;;-2.06;100.00;102164.72;1855247;77;21196;-85
2021/03/02 03:57:52;;;;;;;43.73;30.02;;;;;;;-2.04;100.00;102162.16;1852172;77;21758;-85
2021/03/02 04:00:21;;;;;;;36.40;25.52;;;;;;;-2.04;100.00;102159.17;1859032;77;21363;-86
2021/03/02 04:02:51;;;;;;;35.43;25.82;;;;;;;-2.03;100.00;102160.04;1858861;77;21137;-86
2021/03/02 04:05:20;;;;;;;36.80;26.17;;;;;;;-2.02;100.00;102163.02;1858959;77;21572;-87
2021/03/02 04:07:50;;;;;;;31.12;21.27;;;;;;;-2.03;100.00;102159.59;1859152;77;21148;-89
2021/03/02 04:10:18;;;;;;;27.35;19.87;;;;;;;-2.02;100.00;102161.31;1854075;77;21127;-86
2021/03/02 04:12:47;;;;;;;28.50;20.10;;;;;;;-2.03;100.00;102155.77;1859306;77;22066;-87
2021/03/02 04:15:18;;;;;;;27.87;19.50;;;;;;;-2.03;100.00;102153.22;1856099;77;26007;-86
2021/03/02 04:17:55;;;;;;;27.82;19.40;;;;;;;-2.01;100.00;102147.70;1859127;77;21183;-86
2021/03/02 04:20:23;;;;;;;27.50;19.25;;;;;;;-2.00;100.00;102146.02;1859045;77;21619;-86
2021/03/02 04:22:57;;;;;;;26.23;19.12;;;;;;;-2.01;100.00;102147.70;1859217;77;21093;-86
2021/03/02 04:25:25;;;;;;;26.73;18.15;;;;;;;-2.00;100.00;102145.58;1855588;77;22076;-85
2021/03/02 04:27:53;;;;;;;24.05;18.32;;;;;;;-1.96;100.00;102139.61;1862345;77;21105;-85
2021/03/02 04:30:22;;;;;;;23.05;17.10;;;;;;;-1.96;100.00;102142.16;1862488;77;21223;-85
2021/03/02 04:32:50;;;;;;;20.97;16.35;;;;;;;-1.95;100.00;102136.66;1843890;77;21156;-85
2021/03/02 04:35:19;;;;;;;24.50;17.27;;;;;;;-1.96;100.00;102129.40;1828921;78;21571;-90
2021/03/02 04:42:10;;;;;;;23.75;16.27;;;;;;;-1.93;100.00;102122.20;1845914;77;21615;-89
2021/03/02 04:44:40;;;;;;;23.95;16.82;;;;;;;-1.85;100.00;102113.25;1862316;77;21195;-89
2021/03/02 04:47:09;;;;;;;27.80;16.00;;;;;;;-1.84;100.00;102114.52;1862238;77;21128;-89
2021/03/02 04:49:38;;;;;;;20.48;14.43;;;;;;;-1.82;100.00;102106.88;1862140;76;21151;-89
2021/03/02 04:52:06;;;;;;;20.77;14.33;;;;;;;-1.80;100.00;102099.63;1862233;76;22220;-89
2021/03/02 04:54:34;;;;;;;25.43;17.00;;;;;;;-1.76;100.00;102105.16;1862192;76;21171;-91
2021/03/02 04:57:02;;;;;;;21.33;15.93;;;;;;;-1.71;100.00;102105.59;1862208;77;21143;-89
2021/03/02 04:59:30;;;;;;;23.00;15.15;;;;;;;-1.66;100.00;102106.03;1862287;77;21216;-88
2021/03/02 05:01:58;;;;;;;22.87;16.55;;;;;;;-1.62;100.00;102102.61;1851765;77;21127;-88
2021/03/02 05:04:26;;;;;;;23.75;16.40;;;;;;;-1.59;100.00;102098.78;1833369;77;22185;-89
2021/03/02 05:06:54;;;;;;;24.50;16.10;;;;;;;-1.55;100.00;102103.88;1828307;78;21251;-89
2021/03/02 05:09:22;;;;;;;22.20;16.55;;;;;;;-1.49;100.00;102098.78;1828427;78;21121;-89
2021/03/02 05:11:50;;;;;;;23.85;16.30;;;;;;;-1.46;100.00;102092.38;1828436;78;21572;-89
2021/03/02 05:14:18;;;;;;;26.27;17.80;;;;;;;-1.42;100.00;102096.64;1828538;78;21149;-89
2021/03/02 05:16:46;;;;;;;25.92;17.52;;;;;;;-1.40;100.00;102097.47;1860744;76;21189;-89
2021/03/02 05:19:15;;;;;;;26.97;17.02;;;;;;;-1.36;100.00;102096.62;1856739;76;21173;-89
2021/03/02 05:21:43;;;;;;;30.25;19.50;;;;;;;-1.34;100.00;102084.70;1828473;78;21671;-89
2021/03/02 05:24:11;;;;;;;31.62;19.10;;;;;;;-1.29;100.00;102084.70;1842446;77;21525;-89
2021/03/02 05:26:40;;;;;;;33.30;19.65;;;;;;;-1.24;100.00;102085.97;1841733;77;21153;-89
2021/03/02 05:29:08;;;;;;;31.00;19.50;;;;;;;-1.20;100.00;102073.15;1825286;78;22120;-90
2021/03/02 05:31:37;;;;;;;31.48;19.42;;;;;;;-1.14;100.00;102067.17;1825303;78;21191;-90
2021/03/02 05:34:05;;;;;;;32.55;19.40;;;;;;;-1.08;100.00;102071.42;1825229;78;21160;-90
2021/03/02 05:36:35;;;;;;;30.55;19.45;;;;;;;-1.02;100.00;102066.28;1825332;78;21227;-90
2021/03/02 05:39:06;;;;;;;31.30;19.42;;;;;;;-0.96;100.00;102068.41;1825209;78;21140;-90
2021/03/02 05:41:35;;;;;;;31.68;19.07;;;;;;;-0.90;100.00;102066.25;1825495;78;21355;-90
2021/03/02 05:44:04;;;;;;;33.38;19.52;;;;;;;-0.81;100.00;102058.96;1825170;78;21537;-90
2021/03/02 05:46:34;;;;;;;37.00;18.63;;;;;;;-0.73;100.00;102061.05;1825671;78;21057;-89
2021/03/02 05:49:04;;;;;;;55.43;23.38;;;;;;;-0.61;100.00;102052.47;1825479;78;21208;-89
2021/03/02 05:51:33;;;;;;;42.38;24.37;;;;;;;-0.24;100.00;102051.39;1825689;78;21188;-88
2021/03/02 05:54:01;;;;;;;41.30;22.90;;;;;;;0.07;100.00;102053.31;1825641;78;21627;-88
2021/03/02 05:56:29;;;;;;;38.73;23.27;;;;;;;0.33;100.00;102050.09;1825616;78;21591;-89
2021/03/02 05:58:57;;;;;;;42.90;23.15;;;;;;;0.55;100.00;102049.02;1825749;78;21180;-89
2021/03/02 06:01:26;;;;;;;47.95;27.25;;;;;;;0.73;100.00;102049.69;1825502;78;21188;-89
2021/03/02 06:03:54;;;;;;;51.53;26.30;;;;;;;0.81;100.00;102044.05;1825606;78;21573;-88
2021/03/02 06:06:22;;;;;;;57.17;29.55;;;;;;;0.89;100.00;102038.39;1825458;78;21636;-88
2021/03/02 06:08:50;;;;;;;58.13;28.92;;;;;;;1.05;100.00;102039.48;1836654;77;21172;-89
2021/03/02 06:11:25;;;;;;;50.90;29.50;;;;;;;1.16;100.00;102042.75;1854124;77;21136;-92
2021/03/02 06:13:53;;;;;;;58.40;30.80;;;;;;;1.24;100.00;102031.95;1859341;77;21548;-91
2021/03/02 06:16:23;;;;;;;61.58;34.55;;;;;;;1.29;100.00;102028.48;1852126;77;21124;-91
2021/03/02 06:18:53;;;;;;;67.08;36.05;;;;;;;1.35;100.00;102030.96;1837842;77;21422;-90
2021/03/02 06:21:22;;;;;;;65.35;35.68;;;;;;;1.34;100.00;102022.84;1825963;77;21577;-90
2021/03/02 06:23:53;;;;;;;63.40;35.45;;;;;;;1.33;100.00;102026.28;1855525;76;21164;-91
2021/03/02 06:26:24;;;;;;;63.25;36.30;;;;;;;1.35;100.00;102017.72;1852247;77;21189;-90
2021/03/02 06:28:58;;;;;;;68.47;33.38;;;;;;;1.40;100.00;102018.94;1845406;77;21155;-87
2021/03/02 06:31:42;;;;;;;49.40;29.15;;;;;;;1.42;100.00;102022.30;1838553;77;22141;-89
2021/03/02 06:34:20;;;;;;;50.33;28.80;;;;;;;1.52;100.00;102019.19;1825306;77;21073;-84
2021/03/02 06:36:59;;;;;;;40.12;23.73;;;;;;;1.57;100.00;102018.23;1841087;76;21171;-84
2021/03/02 06:39:41;;;;;;;41.55;23.55;;;;;;;1.56;100.00;102013.95;1844415;77;21168;-85
2021/03/02 06:42:20;;;;;;;37.40;21.97;;;;;;;1.57;100.00;102009.24;1824491;78;21136;-86
2021/03/02 06:44:52;;;;;;;34.92;19.92;;;;;;;1.58;100.00;102005.80;1843013;77;21992;-84
2021/03/02 06:47:39;;;;;;;29.60;18.07;;;;;;;1.60;100.00;101999.80;1825009;78;21156;-85
2021/03/02 06:50:18;;;;;;;33.83;21.65;;;;;;;1.61;100.00;102005.36;1835657;77;21179;-86
2021/03/02 06:52:46;;;;;;;38.55;20.95;;;;;;;1.64;100.00;102000.19;1825144;78;21156;-86
2021/03/02 06:55:23;;;;;;;37.48;22.02;;;;;;;1.68;100.00;101996.23;1829353;77;21156;-86
2021/03/02 06:57:51;;;;;;;34.40;21.17;;;;;;;1.69;100.00;101999.22;1836687;76;21588;-87
2021/03/02 07:00:33;;;;;;;36.03;20.12;;;;;;;1.67;100.00;101994.56;1855697;77;21220;-87
2021/03/02 07:03:01;;;;;;;28.02;18.48;;;;;;;1.67;100.00;101984.71;1825091;78;21472;-85
2021/03/02 07:05:29;;;;;;;30.12;19.23;;;;;;;1.65;100.00;101986.45;1835508;77;21144;-85
2021/03/02 07:07:59;;;;;;;33.50;19.23;;;;;;;1.62;100.00;101984.78;1852078;77;21165;-85
2021/03/02 07:10:27;;;;;;;27.13;17.05;;;;;;;1.61;100.00;101978.39;1825098;78;22124;-87
2021/03/02 07:12:56;;;;;;;29.45;17.35;;;;;;;1.57;100.00;101982.73;1835161;76;21631;-87
2021/03/02 07:15:25;;;;;;;26.27;17.75;;;;;;;1.57;100.00;101993.00;1828980;77;21163;-85
2021/03/02 07:17:55;;;;;;;27.17;17.45;;;;;;;1.53;100.00;101982.34;1825205;78;21453;-85
2021/03/02 07:20:24;;;;;;;29.45;17.12;;;;;;;1.51;100.00;101991.37;1827361;76;21179;-84
2021/03/02 07:22:57;;;;;;;32.70;19.80;;;;;;;1.46;100.00;101993.59;1837860;76;21356;-85
2021/03/02 07:25:29;;;;;;;30.92;18.60;;;;;;;1.43;100.00;101989.80;1844402;77;21199;-86
2021/03/02 07:28:00;;;;;;;38.00;23.95;;;;;;;1.38;100.00;101989.41;1841273;77;21219;-86
2021/03/02 07:30:28;;;;;;;38.30;23.90;;;;;;;1.38;100.00;101986.02;1840400;76;21128;-86
2021/03/02 07:32:56;;;;;;;38.28;23.67;;;;;;;1.40;100.00;101988.97;1829245;77;21081;-86
2021/03/02 07:35:25;;;;;;;34.23;21.65;;;;;;;1.44;100.00;101988.48;1858699;77;21184;-86
2021/03/02 07:38:18;;;;;;;35.03;22.48;;;;;;;1.46;100.00;101980.33;1858829;77;21053;-86
2021/03/02 07:40:51;;;;;;;35.15;20.30;;;;;;;1.50;100.00;101987.10;1858765;77;21137;-86
2021/03/02 07:43:35;;;;;;;34.45;17.85;;;;;;;1.51;100.00;101984.12;1843969;77;21120;-86
2021/03/02 07:46:41;;;;;;;32.67;20.12;;;;;;;1.52;100.00;101976.37;1835694;76;21547;-86
2021/03/02 07:49:31;;;;;;;29.48;19.15;;;;;;;1.54;100.00;101975.93;1825141;78;21368;-86
2021/03/02 07:52:12;;;;;;;29.50;17.65;;;;;;;1.58;100.00;101974.99;1825242;78;21578;-86
2021/03/02 07:54:41;;;;;;;30.92;17.80;;;;;;;1.62;100.00;101966.80;1825362;78;21100;-86
2021/03/02 07:57:21;;;;;;;25.17;15.28;;;;;;;1.66;100.00;101965.90;1831963;77;21187;-86
2021/03/02 08:00:18;;;;;;;28.07;17.32;;;;;;;1.70;100.00;101952.57;1858890;77;21575;-86
2021/03/02 08:03:19;;;;;;;25.88;14.65;;;;;;;1.75;100.00;101953.78;1841080;76;21353;-86
2021/03/02 08:05:49;;;;;;;29.82;15.70;;;;;;;1.82;100.00;101952.34;1838461;77;21052;-86
2021/03/02 08:08:28;;;;;;;31.02;19.10;;;;;;;1.84;100.00;101954.92;1854465;76;22124;-86
2021/03/02 08:11:01;;;;;;;28.35;16.27;;;;;;;1.80;100.00;101950.27;1846415;76;21519;-85
2021/03/02 08:13:41;;;;;;;29.05;17.77;;;;;;;1.78;100.00;101955.86;1839922;77;21571;-87
2021/03/02 08:16:15;;;;;;;29.25;17.90;;;;;;;1.73;100.00;101944.80;1858958;77;26749;-86
2021/03/02 08:18:45;;;;;;;27.90;18.05;;;;;;;1.70;100.00;101943.58;1858883;77;21177;-86
2021/03/02 08:21:21;;;;;;;28.10;17.95;;;;;;;1.69;100.00;101940.59;1857262;77;21137;-86
2021/03/02 08:23:58;;;;;;;17.62;10.32;;;;;;;1.68;100.00;101926.89;1858996;77;21219;-87
2021/03/02 08:26:31;;;;;;;23.22;16.37;;;;;;;1.68;100.00;101929.91;1858956;77;21053;-86
2021/03/02 08:29:08;;;;;;;26.97;16.75;;;;;;;1.69;100.00;101938.86;1858951;77;21140;-86
2021/03/02 08:31:41;;;;;;;17.00;9.48;;;;;;;1.68;100.00;101938.45;1858861;77;21101;-87
2021/03/02 08:34:12;;;;;;;31.10;18.27;;;;;;;1.64;100.00;101932.13;1858854;77;21232;-86
2021/03/02 08:36:40;;;;;;;29.37;15.90;;;;;;;1.65;100.00;101929.95;1859087;77;21143;-86
2021/03/02 08:44:05;;;;;;;23.02;14.60;;;;;;;1.69;100.00;101918.32;1859069;77;21156;-86
2021/03/02 08:46:36;;;;;;;23.30;13.80;;;;;;;1.75;100.00;101917.38;1858888;77;21136;-86
2021/03/02 08:49:12;;;;;;;21.68;13.10;;;;;;;1.77;100.00;101916.05;1858970;77;21596;-88
2021/03/02 08:51:41;;;;;;;19.55;13.45;;;;;;;1.80;100.00;101910.88;1858705;77;21465;-85
2021/03/02 08:54:09;;;;;;;14.85;9.80;;;;;;;1.84;100.00;101911.25;1859015;77;21134;-85
2021/03/02 08:56:37;;;;;;;18.20;13.65;;;;;;;1.85;100.00;101906.07;1858802;77;21353;-85
2021/03/02 08:59:08;;;;;;;16.77;11.55;;;;;;;1.84;100.00;101905.66;1858839;77;21192;-85
2021/03/02 09:01:39;;;;;;;19.98;13.55;;;;;;;1.84;100.00;101903.54;1859155;77;21207;-85
2021/03/02 09:04:18;;;;;;;20.82;14.07;;;;;;;1.82;100.00;101908.69;1859290;77;21156;-84
2021/03/02 09:06:51;;;;;;;20.37;13.70;;;;;;;1.81;100.00;101895.88;1859077;77;21116;-84
2021/03/02 09:09:22;;;;;;;22.22;13.98;;;;;;;1.83;100.00;101890.28;1859089;77;21572;-84
2021/03/02 09:11:56;;;;;;;19.98;16.00;;;;;;;1.84;100.00;101885.11;1859364;77;21196;-84
2021/03/02 09:14:29;;;;;;;21.00;14.68;;;;;;;1.86;100.00;101884.66;1859085;77;21164;-85
2021/03/02 09:17:00;;;;;;;18.07;11.93;;;;;;;1.87;100.00;101884.20;1859111;77;21145;-85
2021/03/02 09:19:41;;;;;;;15.40;10.30;;;;;;;1.87;100.00;101878.64;1859250;77;21225;-85
2021/03/02 09:22:16;;;;;;;19.50;11.70;;;;;;;1.88;100.00;101881.59;1859217;77;21348;-84
2021/03/02 09:24:55;;;;;;;17.02;11.15;;;;;;;1.91;100.00;101878.56;1859198;77;21108;-84
2021/03/02 09:27:34;;;;;;;15.95;10.28;;;;;;;1.94;100.00;101884.95;1856108;76;21568;-85
2021/03/02 09:30:08;;;;;;;15.08;10.58;;;;;;;1.97;100.00;101869.03;1858923;77;21172;-85
2021/03/02 09:32:36;;;;;;;17.37;13.13;;;;;;;2.00;100.00;101870.23;1855844;77;21104;-84
2021/03/02 09:35:10;;;;;;;17.27;12.93;;;;;;;2.04;100.00;101867.20;1858899;77;21197;-84
2021/03/02 09:37:39;;;;;;;18.95;13.20;;;;;;;2.07;100.00;101859.87;1859102;77;21264;-85
2021/03/02 09:40:11;;;;;;;19.48;12.53;;;;;;;2.11;100.00;101862.34;1858936;77;21117;-84
2021/03/02 09:42:42;;;;;;;17.02;12.55;;;;;;;2.15;100.00;101854.97;1859188;77;21148;-84
2021/03/02 09:45:14;;;;;;;16.57;10.98;;;;;;;2.17;100.00;101853.23;1859219;77;21124;-84
2021/03/02 09:47:44;;;;;;;21.80;16.12;;;;;;;2.16;100.00;101851.53;1858822;77;21464;-84
2021/03/02 09:50:17;;;;;;;23.02;15.53;;;;;;;2.18;100.00;101856.20;1858423;77;21199;-84
2021/03/02 09:52:50;;;;;;;;;;;;;;;2.18;100.00;101847.21;1861778;77;21105;-84
2021/03/02 09:55:26;;;;;;;19.02;9.20;;;;;;;2.19;100.00;101846.76;1858888;77;20276;-84
2021/03/02 09:58:16;;;;;;;20.72;14.90;;;;;;;2.19;100.00;101839.05;1858924;77;21068;-84
2021/03/02 10:00:52;;;;;;;20.35;14.25;;;;;;;2.20;100.00;101841.58;1859137;77;21550;-84
2021/03/02 10:03:26;;;;;;;18.10;12.78;;;;;;;2.23;100.00;101830.84;1858850;77;21124;-84
2021/03/02 10:06:01;;;;;;;23.52;14.65;;;;;;;2.23;100.00;101826.56;1858867;77;21133;-84
2021/03/02 10:08:37;;;;;;;17.30;11.05;;;;;;;2.22;100.00;101815.87;1858655;77;21168;-84
2021/03/02 10:11:17;;;;;;;18.52;13.72;;;;;;;2.21;100.00;101803.44;1858950;77;21034;-84
2021/03/02 10:13:54;;;;;;;21.87;14.40;;;;;;;2.21;100.00;101806.01;1858974;77;22286;-83
2021/03/02 10:16:30;;;;;;;23.32;15.28;;;;;;;2.24;100.00;101799.13;1858796;77;21180;-86
2021/03/02 10:19:03;;;;;;;25.05;17.35;;;;;;;2.28;100.00;101802.05;1859026;77;21144;-86
2021/03/02 10:21:48;;;;;;;24.27;16.70;;;;;;;2.32;100.00;101796.78;1858971;77;21594;-86
2021/03/02 10:24:23;;;;;;;25.65;19.05;;;;;;;2.34;100.00;101789.05;1859033;77;21533;-86
2021/03/02 10:26:56;;;;;;;28.15;20.15;;;;;;;2.35;100.00;101783.04;1858915;77;21539;-87
2021/03/02 10:29:24;;;;;;;21.05;16.23;;;;;;;2.34;100.00;101778.77;1861397;77;21509;-87
2021/03/02 10:31:52;;;;;;;28.47;19.73;;;;;;;2.32;100.00;101777.50;1862279;77;21536;-87
2021/03/02 10:34:21;;;;;;;27.17;19.10;;;;;;;2.30;100.00;101775.84;1862328;77;21203;-87
2021/03/02 10:36:54;;;;;;;27.62;17.10;;;;;;;2.28;100.00;101766.06;1862181;77;21182;-87
2021/03/02 10:39:22;;;;;;;24.40;16.02;;;;;;;2.28;100.00;101767.34;1855496;77;21538;-84
2021/03/02 10:41:50;;;;;;;28.77;20.08;;;;;;;2.29;100.00;101766.02;1843641;77;21164;-84
2021/03/02 10:44:19;;;;;;;25.00;17.15;;;;;;;2.31;100.00;101756.98;1777260;79;21182;-84
2021/03/02 10:46:48;;;;;;;23.77;18.57;;;;;;;2.35;100.00;101757.33;1823089;78;21123;-84
2021/03/02 10:49:16;;;;;;;23.87;16.45;;;;;;;2.38;100.00;101745.67;1785534;78;21143;-84
2021/03/02 10:51:44;;;;;;;18.75;14.35;;;;;;;2.44;100.00;101726.70;1765173;80;21577;-84
2021/03/02 10:54:13;;;;;;;19.52;15.93;;;;;;;2.48;100.00;101731.73;1765087;81;21186;-84
2021/03/02 10:56:41;;;;;;;20.10;15.30;;;;;;;2.52;100.00;101729.48;1769730;79;21626;-84
2021/03/02 10:59:09;;;;;;;22.73;17.35;;;;;;;2.55;100.00;101720.02;1786821;79;21147;-84
2021/03/02 11:01:37;;;;;;;22.30;16.27;;;;;;;2.54;100.00;101710.18;1786220;79;21155;-85
2021/03/02 11:04:07;;;;;;;21.15;14.78;;;;;;;2.56;100.00;101698.14;1804720;77;21462;-86
2021/03/02 11:06:35;;;;;;;20.88;15.55;;;;;;;2.60;100.00;101688.63;1809007;78;21136;-86
2021/03/02 11:09:04;;;;;;;19.77;12.07;;;;;;;2.64;100.00;101692.80;1820306;78;21614;-86
2021/03/02 11:11:32;;;;;;;20.23;15.90;;;;;;;2.61;100.00;101686.42;1792176;79;21162;-86
2021/03/02 11:14:01;;;;;;;20.75;16.07;;;;;;;2.59;100.00;101681.33;1755877;79;21150;-86
2021/03/02 11:16:29;;;;;;;19.25;13.83;;;;;;;2.60;100.00;101681.73;1771812;80;21357;-85
2021/03/02 11:18:58;;;;;;;18.90;15.18;;;;;;;2.61;100.00;101664.56;1768125;79;21109;-86
2021/03/02 11:21:27;;;;;;;22.42;15.83;;;;;;;2.61;100.00;101671.86;1766977;79;21098;-85
2021/03/02 11:23:55;;;;;;;20.62;14.93;;;;;;;2.59;100.00;101673.61;1793875;78;21122;-86
2021/03/02 11:26:23;;;;;;;20.45;15.00;;;;;;;2.56;100.00;101663.42;1791928;80;21150;-86
2021/03/02 11:28:51;;;;;;;19.67;14.58;;;;;;;2.55;100.00;101660.45;1810383;78;22243;-86
2021/03/02 11:31:20;;;;;;;17.90;13.78;;;;;;;2.55;100.00;101662.16;1806112;78;21570;-85
2021/03/02 11:33:49;;;;;;;17.15;11.40;;;;;;;2.54;100.00;101658.75;1810046;78;21162;-86
2021/03/02 11:36:19;;;;;;;20.05;15.13;;;;;;;2.54;100.00;101642.04;1813148;78;21244;-85
2021/03/02 11:38:48;;;;;;;18.77;14.65;;;;;;;2.57;100.00;101645.80;1814397;78;21183;-85